Time;durP1;ratioP1;P1;durP2;ratioP2;P2;SDS_P1;SDS_P2;PMS_P1;PMS_P2;Temp;Humidity;BMP_temperature;BMP_pressure;BME280_temperature;BME280_humidity;BME280_pressure;Samples;Min_cycle;Max_cycle;Signal;HPM_P1;HPM_P2
2024/03/23 00:00:47;;;;;;;12.55;9.15;;;12.00;93.50;;;;;;5006738;28;20034;-95
2024/03/23 00:03:14;;;;;;;12.40;8.63;;;12.00;92.00;;;;;;5005591;28;20030;-94
2024/03/23 00:05:40;;;;;;;9.98;8.63;;;12.00;93.10;;;;;;4987520;28;20026;-95
2024/03/23 00:08:07;;;;;;;10.40;8.40;;;11.90;92.80;;;;;;5004650;28;20085;-94
2024/03/23 00:10:37;;;;;;;12.20;8.65;;;11.90;92.90;;;;;;5000244;28;20027;-92
2024/03/23 00:13:04;;;;;;;11.15;8.43;;;11.90;93.30;;;;;;5004706;28;20022;-93
2024/03/23 00:15:31;;;;;;;12.68;9.18;;;11.90;92.90;;;;;;5008334;28;20053;-94
2024/03/23 00:17:58;;;;;;;13.88;9.45;;;12.00;91.80;;;;;;4984624;28;20073;-93
2024/03/23 00:20:24;;;;;;;12.65;9.05;;;12.00;91.00;;;;;;5006964;28;20034;-95
2024/03/23 00:22:51;;;;;;;12.88;9.00;;;11.90;92.50;;;;;;5005132;28;20061;-94
2024/03/23 00:25:17;;;;;;;12.77;9.38;;;11.90;92.00;;;;;;4982586;28;20034;-93
2024/03/23 00:27:44;;;;;;;12.13;8.60;;;12.00;91.60;;;;;;4973728;28;20408;-94
2024/03/23 00:30:11;;;;;;;13.45;9.57;;;12.00;91.50;;;;;;5001770;28;20026;-93
2024/03/23 00:32:38;;;;;;;11.77;9.55;;;12.00;91.70;;;;;;5002619;28;20549;-94
2024/03/23 00:35:04;;;;;;;12.10;8.73;;;12.10;91.70;;;;;;5000683;28;20027;-95
2024/03/23 00:37:31;;;;;;;9.77;7.88;;;12.10;90.40;;;;;;4984605;28;20042;-92
2024/03/23 00:39:57;;;;;;;12.40;8.95;;;11.90;90.30;;;;;;5008601;28;20038;-94
2024/03/23 00:42:24;;;;;;;10.38;8.15;;;11.90;91.80;;;;;;5001709;28;20061;-94
2024/03/23 00:44:50;;;;;;;10.35;8.65;;;11.90;91.60;;;;;;4999851;28;20089;-95
2024/03/23 00:47:17;;;;;;;11.30;8.57;;;11.90;91.00;;;;;;5001446;28;20030;-94
2024/03/23 00:49:43;;;;;;;10.82;7.43;;;11.90;90.70;;;;;;4998443;28;20041;-94
2024/03/23 00:52:10;;;;;;;10.73;6.72;;;11.90;90.00;;;;;;5000525;28;20415;-94
2024/03/23 00:54:36;;;;;;;10.23;7.22;;;11.90;89.30;;;;;;4981333;28;20033;-94
2024/03/23 00:57:02;;;;;;;9.95;6.40;;;11.90;88.80;;;;;;4997143;28;20058;-94
2024/03/23 00:59:28;;;;;;;12.70;6.93;;;11.90;88.40;;;;;;4999017;28;20034;-95
2024/03/23 01:02:05;;;;;;;9.23;5.88;;;11.90;89.50;;;;;;4999448;28;20038;-96
2024/03/23 01:04:31;;;;;;;8.73;6.40;;;11.80;88.70;;;;;;5022383;28;20023;-93
2024/03/23 01:06:56;;;;;;;8.05;6.13;;;11.90;87.30;;;;;;5011816;28;20046;-94
2024/03/23 01:09:22;;;;;;;9.93;7.90;;;11.90;87.00;;;;;;4998248;28;20030;-94
2024/03/23 01:11:48;;;;;;;10.18;7.28;;;12.00;86.60;;;;;;5008698;28;20053;-95
2024/03/23 01:14:14;;;;;;;10.68;6.70;;;12.00;86.40;;;;;;4998700;28;20042;-94
2024/03/23 01:16:39;;;;;;;8.80;6.55;;;12.00;85.80;;;;;;4996158;28;20038;-95
2024/03/23 01:19:06;;;;;;;11.13;7.55;;;12.00;86.10;;;;;;4999782;28;20038;-94
2024/03/23 01:21:31;;;;;;;11.45;7.28;;;12.00;86.30;;;;;;4993248;28;20105;-94
2024/03/23 01:23:57;;;;;;;11.63;7.10;;;11.90;86.80;;;;;;5000102;28;20058;-93
2024/03/23 01:26:23;;;;;;;9.55;6.88;;;11.90;87.20;;;;;;5000879;28;20078;-93
2024/03/23 01:28:48;;;;;;;10.43;7.25;;;11.90;87.30;;;;;;5007038;28;20030;-94
2024/03/23 01:31:15;;;;;;;12.75;7.60;;;11.90;87.50;;;;;;4996992;28;20083;-94
2024/03/23 01:33:41;;;;;;;14.27;7.53;;;12.00;87.20;;;;;;4998414;28;20019;-94
2024/03/23 01:36:07;;;;;;;10.57;6.68;;;11.90;87.10;;;;;;4998641;28;20045;-93
2024/03/23 01:38:32;;;;;;;10.70;7.35;;;12.00;87.20;;;;;;4998967;28;20026;-93
2024/03/23 01:40:58;;;;;;;12.63;6.68;;;12.00;87.10;;;;;;4991740;28;20019;-92
2024/03/23 01:43:24;;;;;;;13.87;7.63;;;12.10;87.10;;;;;;4998314;28;20666;-93
2024/03/23 01:45:50;;;;;;;8.80;6.03;;;12.10;86.70;;;;;;4997467;28;20148;-94
2024/03/23 01:48:16;;;;;;;8.70;7.03;;;12.10;86.40;;;;;;5006325;28;20041;-93
2024/03/23 01:50:41;;;;;;;11.30;6.57;;;12.20;85.70;;;;;;4992191;28;20027;-93
2024/03/23 01:53:07;;;;;;;9.52;6.10;;;12.20;85.00;;;;;;4995461;28;20031;-93
2024/03/23 01:55:33;;;;;;;8.95;5.90;;;12.30;84.70;;;;;;4995945;28;20057;-94
2024/03/23 01:57:59;;;;;;;12.30;7.63;;;12.30;85.00;;;;;;4996218;28;20070;-93
2024/03/23 02:00:25;;;;;;;8.25;6.40;;;12.30;85.10;;;;;;4995923;28;20030;-95
2024/03/23 02:02:51;;;;;;;11.68;6.78;;;12.30;84.70;;;;;;4972826;28;20023;-94
2024/03/23 02:05:17;;;;;;;8.63;6.13;;;12.40;84.40;;;;;;4996611;28;20045;-94
2024/03/23 02:07:43;;;;;;;13.52;6.85;;;12.40;85.00;;;;;;4994858;28;20010;-93
2024/03/23 02:10:10;;;;;;;7.47;6.20;;;12.40;84.70;;;;;;4998301;28;20022;-95
2024/03/23 02:12:36;;;;;;;10.25;6.15;;;12.30;84.90;;;;;;4997806;28;20027;-94
2024/03/23 02:15:02;;;;;;;8.45;5.88;;;12.40;85.10;;;;;;4995369;28;20030;-93
2024/03/23 02:17:30;;;;;;;8.13;6.43;;;12.40;84.40;;;;;;5006198;28;20082;-93
2024/03/23 02:19:56;;;;;;;9.25;6.35;;;12.40;84.10;;;;;;4998917;28;20092;-95
2024/03/23 02:22:21;;;;;;;10.18;5.90;;;12.40;84.80;;;;;;4999930;28;20485;-94
2024/03/23 02:24:47;;;;;;;9.75;5.93;;;12.40;84.80;;;;;;4983295;28;20030;-92
2024/03/23 02:27:13;;;;;;;10.38;6.65;;;12.40;85.30;;;;;;4986590;28;20495;-94
2024/03/23 02:29:38;;;;;;;11.63;6.50;;;12.50;85.50;;;;;;4998698;28;20500;-94
2024/03/23 02:32:04;;;;;;;8.27;6.18;;;12.40;85.40;;;;;;4998538;28;20049;-94
2024/03/23 02:34:30;;;;;;;11.05;6.70;;;12.40;85.70;;;;;;5004548;28;20022;-94
2024/03/23 02:36:56;;;;;;;8.35;6.32;;;12.40;85.60;;;;;;4995738;28;20042;-94
2024/03/23 02:39:22;;;;;;;8.07;6.97;;;12.40;86.50;;;;;;5000443;28;20571;-95
2024/03/23 02:41:47;;;;;;;10.05;7.00;;;12.40;85.80;;;;;;4998186;28;20037;-94
2024/03/23 02:44:13;;;;;;;10.02;6.72;;;12.40;86.90;;;;;;4997425;28;20044;-94
2024/03/23 02:46:39;;;;;;;10.50;6.22;;;12.40;86.60;;;;;;4991492;28;20030;-94
2024/03/23 02:49:05;;;;;;;12.38;6.57;;;12.40;86.80;;;;;;5004082;28;20026;-93
2024/03/23 02:51:31;;;;;;;14.27;7.22;;;12.40;87.30;;;;;;4995001;28;20036;-94
2024/03/23 02:53:57;;;;;;;13.88;7.40;;;12.30;87.50;;;;;;5003260;28;20602;-93
2024/03/23 02:56:22;;;;;;;10.75;7.18;;;12.30;88.30;;;;;;4991959;28;20592;-94
2024/03/23 02:58:48;;;;;;;9.32;6.75;;;12.20;88.60;;;;;;4996750;28;20034;-93
2024/03/23 03:01:14;;;;;;;13.07;6.63;;;12.20;89.10;;;;;;4998035;28;20041;-92
2024/03/23 03:03:39;;;;;;;11.05;7.07;;;12.20;88.70;;;;;;4996791;28;20040;-93
2024/03/23 03:06:06;;;;;;;12.45;7.20;;;12.20;88.60;;;;;;4998177;28;20037;-93
2024/03/23 03:08:32;;;;;;;14.95;7.60;;;12.20;88.70;;;;;;4998903;28;20046;-93
2024/03/23 03:10:58;;;;;;;11.90;7.50;;;12.30;88.70;;;;;;4995119;28;20043;-94
2024/03/23 03:13:23;;;;;;;18.35;8.18;;;12.40;87.50;;;;;;4988990;28;20284;-94
2024/03/23 03:15:49;;;;;;;15.25;7.70;;;12.50;87.30;;;;;;4996402;28;20033;-93
2024/03/23 03:18:15;;;;;;;15.27;8.65;;;12.50;86.70;;;;;;5013695;28;20032;-95
2024/03/23 03:20:40;;;;;;;14.05;7.78;;;12.60;85.60;;;;;;4997386;28;20086;-94
2024/03/23 03:23:06;;;;;;;15.07;8.70;;;12.60;85.00;;;;;;4992103;28;20034;-94
2024/03/23 03:25:32;;;;;;;12.73;7.75;;;12.70;83.90;;;;;;4997767;28;20026;-94
2024/03/23 03:27:58;;;;;;;15.70;9.80;;;12.70;82.80;;;;;;4993935;28;20031;-93
2024/03/23 03:30:24;;;;;;;18.50;9.48;;;12.70;82.80;;;;;;5004462;28;20034;-95
2024/03/23 03:32:52;;;;;;;13.82;8.02;;;12.70;82.00;;;;;;5015355;28;20030;-93
2024/03/23 03:35:17;;;;;;;18.92;9.13;;;12.70;82.80;;;;;;5017463;28;20014;-95
2024/03/23 03:37:43;;;;;;;16.65;9.07;;;12.70;82.80;;;;;;5017452;28;20042;-96
2024/03/23 03:40:09;;;;;;;16.58;9.43;;;12.70;83.20;;;;;;5016604;28;20061;-93
2024/03/23 03:42:35;;;;;;;13.93;8.48;;;12.70;82.10;;;;;;5019786;28;20505;-94
2024/03/23 03:45:01;;;;;;;16.13;8.82;;;12.70;82.50;;;;;;4989780;28;20042;-93
2024/03/23 03:47:26;;;;;;;16.35;10.10;;;12.70;83.10;;;;;;4991788;28;20081;-92
2024/03/23 03:49:52;;;;;;;18.48;9.18;;;12.70;82.60;;;;;;4994162;28;20385;-93
2024/03/23 03:52:18;;;;;;;17.45;9.18;;;12.50;83.10;;;;;;4996686;28;20026;-95
2024/03/23 03:54:43;;;;;;;20.63;11.57;;;12.50;82.80;;;;;;4996729;28;20117;-95
2024/03/23 03:57:09;;;;;;;16.65;10.30;;;12.50;81.90;;;;;;4992046;28;20030;-96
2024/03/23 03:59:34;;;;;;;18.23;11.25;;;12.40;82.20;;;;;;4992232;28;20041;-94
2024/03/23 04:02:00;;;;;;;18.67;10.23;;;12.40;83.50;;;;;;4996077;28;20735;-93
2024/03/23 04:04:26;;;;;;;18.17;10.27;;;12.40;82.80;;;;;;4995788;28;20030;-94
2024/03/23 04:06:59;;;;;;;18.27;10.02;;;12.30;83.50;;;;;;4994920;28;20023;-92
2024/03/23 04:09:25;;;;;;;19.00;10.30;;;12.30;84.10;;;;;;4994263;28;20027;-92
2024/03/23 04:11:50;;;;;;;20.80;9.98;;;12.20;84.90;;;;;;4994959;28;20026;-94
2024/03/23 04:14:16;;;;;;;19.05;9.95;;;12.20;85.00;;;;;;5000412;28;20034;-93
2024/03/23 04:16:41;;;;;;;19.10;10.25;;;12.20;84.10;;;;;;4993840;28;20033;-94
2024/03/23 04:19:07;;;;;;;18.77;8.90;;;12.10;85.10;;;;;;5007617;28;20031;-94
2024/03/23 04:21:34;;;;;;;16.60;8.35;;;12.10;84.20;;;;;;5002212;28;20034;-93
2024/03/23 04:23:59;;;;;;;17.48;10.25;;;12.10;85.40;;;;;;5008445;28;20052;-94
2024/03/23 04:26:25;;;;;;;19.70;11.48;;;12.00;85.90;;;;;;4996633;28;20484;-94
2024/03/23 04:28:51;;;;;;;17.58;10.18;;;12.00;87.00;;;;;;4998740;28;20393;-94
2024/03/23 04:31:16;;;;;;;18.17;10.10;;;11.90;88.30;;;;;;4997232;28;20042;-93
2024/03/23 04:33:42;;;;;;;18.77;9.80;;;11.80;89.70;;;;;;4997473;28;20082;-94
2024/03/23 04:36:08;;;;;;;17.67;9.52;;;11.80;90.10;;;;;;4999172;28;20057;-93
2024/03/23 04:38:34;;;;;;;15.75;9.30;;;11.70;89.70;;;;;;4988803;28;20434;-92
2024/03/23 04:40:59;;;;;;;17.50;8.68;;;11.60;88.70;;;;;;4994722;28;20014;-93
2024/03/23 04:43:26;;;;;;;14.98;8.20;;;11.60;88.30;;;;;;4992738;28;20027;-93
2024/03/23 04:45:52;;;;;;;12.50;7.55;;;11.50;88.90;;;;;;4995268;28;20109;-93
2024/03/23 04:48:22;;;;;;;17.08;8.48;;;11.50;89.50;;;;;;4998080;28;20058;-93
2024/03/23 04:50:49;;;;;;;14.77;7.95;;;11.50;90.60;;;;;;4983955;28;20018;-94
2024/03/23 04:53:15;;;;;;;15.07;6.72;;;11.40;90.60;;;;;;5000968;28;20026;-93
2024/03/23 04:55:41;;;;;;;14.75;7.90;;;11.40;91.30;;;;;;4981394;28;20045;-92
2024/03/23 04:58:07;;;;;;;14.95;7.57;;;11.30;91.10;;;;;;4981534;28;20121;-94
2024/03/23 05:00:33;;;;;;;15.82;8.00;;;11.30;89.90;;;;;;4996861;28;20054;-93
2024/03/23 05:02:58;;;;;;;9.10;5.75;;;11.30;90.00;;;;;;4993031;28;20027;-94
2024/03/23 05:05:24;;;;;;;9.52;5.68;;;11.20;88.90;;;;;;4995217;28;20763;-94
2024/03/23 05:07:49;;;;;;;8.52;4.65;;;11.30;87.00;;;;;;4997225;28;20025;-95
2024/03/23 05:10:16;;;;;;;6.55;3.72;;;11.20;84.00;;;;;;4993856;28;20031;-93
2024/03/23 05:12:42;;;;;;;8.10;4.53;;;11.20;82.00;;;;;;4998882;28;20007;-93
2024/03/23 05:15:07;;;;;;;5.50;2.67;;;11.20;84.40;;;;;;4994501;28;20038;-92
2024/03/23 05:17:34;;;;;;;2.80;2.03;;;11.10;80.70;;;;;;4997732;28;20524;-93
2024/03/23 05:20:00;;;;;;;2.88;1.30;;;11.00;80.40;;;;;;4998517;28;20022;-92
2024/03/23 05:22:27;;;;;;;2.70;1.70;;;10.90;80.30;;;;;;4997892;28;20037;-95
2024/03/23 05:24:53;;;;;;;1.50;1.25;;;10.80;81.30;;;;;;5000275;28;20023;-92
2024/03/23 05:27:18;;;;;;;2.58;1.85;;;10.70;82.00;;;;;;4995043;28;20078;-95
2024/03/23 05:29:44;;;;;;;1.73;1.52;;;10.60;82.60;;;;;;5002935;28;20130;-93
2024/03/23 05:32:10;;;;;;;3.47;1.30;;;10.60;82.90;;;;;;4980255;28;20085;-93
2024/03/23 05:34:35;;;;;;;1.55;1.10;;;10.50;83.70;;;;;;4998784;28;20041;-93
2024/03/23 05:37:01;;;;;;;2.00;1.30;;;10.50;84.40;;;;;;4998727;28;20058;-93
2024/03/23 05:39:27;;;;;;;2.13;1.15;;;10.40;85.00;;;;;;4999664;28;20036;-93
2024/03/23 05:41:53;;;;;;;3.15;1.92;;;10.30;84.60;;;;;;5004821;28;20087;-92
2024/03/23 05:44:18;;;;;;;2.10;0.98;;;10.20;84.90;;;;;;4997331;28;20046;-93
2024/03/23 05:46:48;;;;;;;1.35;1.20;;;10.20;84.70;;;;;;5004756;28;20028;-94
2024/03/23 05:49:15;;;;;;;2.20;1.65;;;10.10;85.20;;;;;;4993360;28;20022;-92
2024/03/23 05:51:41;;;;;;;2.47;1.05;;;10.10;86.00;;;;;;4989442;28;20509;-94
2024/03/23 05:54:06;;;;;;;1.65;1.30;;;10.10;85.30;;;;;;4997347;28;20085;-93
2024/03/23 05:56:32;;;;;;;1.90;1.30;;;10.10;85.40;;;;;;4995157;28;20042;-94
2024/03/23 05:58:58;;;;;;;1.48;1.13;;;10.00;85.60;;;;;;4995678;28;20026;-94
2024/03/23 06:01:23;;;;;;;1.60;1.50;;;10.00;86.70;;;;;;4974684;28;20033;-92
2024/03/23 06:03:49;;;;;;;2.22;1.77;;;10.00;86.00;;;;;;4996886;28;20607;-93
2024/03/23 06:06:14;;;;;;;1.67;1.58;;;9.90;85.80;;;;;;4978119;28;20555;-94
2024/03/23 06:08:40;;;;;;;1.45;1.35;;;9.80;86.10;;;;;;4998455;28;20048;-92
2024/03/23 06:11:06;;;;;;;2.13;1.75;;;9.80;85.60;;;;;;4997094;28;20102;-93
2024/03/23 06:13:33;;;;;;;2.22;2.08;;;9.80;86.20;;;;;;4994127;28;20404;-92
2024/03/23 06:15:59;;;;;;;2.47;1.35;;;9.80;86.70;;;;;;4997086;28;20117;-94
2024/03/23 06:18:26;;;;;;;1.77;1.20;;;9.80;87.20;;;;;;4997237;28;20563;-93
2024/03/23 06:20:51;;;;;;;1.23;1.02;;;9.70;86.70;;;;;;4998165;28;20019;-94
2024/03/23 06:23:19;;;;;;;1.65;1.55;;;9.70;87.50;;;;;;4998599;28;20094;-92
2024/03/23 06:25:45;;;;;;;2.05;1.95;;;9.60;86.90;;;;;;5006234;28;20033;-91
2024/03/23 06:28:11;;;;;;;2.53;1.40;;;9.70;87.10;;;;;;4990828;28;20063;-93
2024/03/23 06:30:36;;;;;;;1.40;1.30;;;9.60;86.80;;;;;;4996600;28;20443;-93
2024/03/23 06:33:02;;;;;;;1.27;1.13;;;9.60;87.00;;;;;;5006390;28;20054;-93
2024/03/23 06:35:28;;;;;;;1.52;1.27;;;9.60;87.00;;;;;;4999809;28;20113;-93
2024/03/23 06:40:23;;;;;;;1.20;1.10;;;9.60;87.30;;;;;;5014289;28;20049;-94
2024/03/23 06:42:48;;;;;;;2.53;1.40;;;9.60;87.00;;;;;;5016952;28;20377;-92
2024/03/23 06:45:14;;;;;;;1.60;1.50;;;9.60;87.60;;;;;;5017738;28;20038;-92
2024/03/23 06:47:40;;;;;;;2.53;2.33;;;9.60;87.90;;;;;;5011389;28;20076;-92
2024/03/23 06:50:06;;;;;;;15.70;10.32;;;9.60;87.10;;;;;;5011758;28;20032;-92
2024/03/23 06:52:32;;;;;;;1.35;1.33;;;9.60;85.50;;;;;;5018602;28;20018;-92
2024/03/23 06:54:58;;;;;;;1.35;1.35;;;9.50;86.00;;;;;;5015851;28;20037;-94
2024/03/23 06:57:25;;;;;;;5.03;4.72;;;9.40;86.50;;;;;;5017264;28;20036;-90
2024/03/23 06:59:50;;;;;;;2.17;1.88;;;9.40;87.70;;;;;;5016081;28;20029;-91
2024/03/23 07:02:16;;;;;;;3.80;3.50;;;9.40;87.50;;;;;;5017340;28;20060;-90
2024/03/23 07:04:42;;;;;;;2.80;2.60;;;9.50;88.00;;;;;;5015900;28;20038;-90
2024/03/23 07:07:08;;;;;;;1.25;1.20;;;9.50;87.60;;;;;;5016844;28;20034;-91
2024/03/23 07:09:33;;;;;;;2.17;1.80;;;9.40;83.10;;;;;;5015418;28;20041;-91
2024/03/23 07:11:59;;;;;;;2.13;2.03;;;9.40;85.00;;;;;;5014992;28;20595;-91
2024/03/23 07:14:25;;;;;;;5.60;5.30;;;9.30;86.30;;;;;;5015144;28;20030;-91
2024/03/23 07:16:51;;;;;;;1.92;1.83;;;9.30;87.50;;;;;;5015821;28;20443;-90
2024/03/23 07:19:17;;;;;;;2.08;1.88;;;9.40;86.90;;;;;;5017163;28;20113;-90
2024/03/23 07:21:47;;;;;;;1.20;1.10;;;9.40;86.80;;;;;;5015298;28;20051;-91
2024/03/23 07:24:13;;;;;;;3.33;3.08;;;9.40;86.40;;;;;;5010047;28;20032;-90
2024/03/23 07:26:39;;;;;;;1.65;1.55;;;9.40;86.30;;;;;;5016313;28;20026;-89
2024/03/23 07:29:06;;;;;;;6.75;6.13;;;9.40;86.70;;;;;;5016721;28;20018;-90
2024/03/23 07:31:32;;;;;;;7.47;6.80;;;9.30;86.60;;;;;;5013660;28;20045;-89
2024/03/23 07:33:57;;;;;;;2.90;2.53;;;9.30;87.70;;;;;;5027576;28;20030;-90
2024/03/23 07:36:23;;;;;;;2.25;1.77;;;9.30;85.40;;;;;;5001050;28;20076;-89
2024/03/23 07:38:49;;;;;;;4.13;3.83;;;9.20;85.40;;;;;;5013633;28;20033;-89
2024/03/23 07:41:19;;;;;;;2.83;2.25;;;9.20;86.60;;;;;;5012847;28;20029;-89
2024/03/23 07:43:45;;;;;;;1.55;1.45;;;9.30;85.20;;;;;;5016198;28;20022;-91
2024/03/23 07:46:12;;;;;;;2.00;1.90;;;9.50;84.10;;;;;;5016963;28;20033;-90
2024/03/23 07:48:38;;;;;;;1.42;1.23;;;9.50;83.60;;;;;;4998428;28;20053;-91
2024/03/23 07:51:07;;;;;;;0.80;0.68;;;9.50;82.10;;;;;;4952351;28;20022;-90
2024/03/23 07:53:33;;;;;;;1.60;1.50;;;9.40;82.70;;;;;;4950251;28;20101;-89
2024/03/23 07:56:05;;;;;;;3.45;1.73;;;9.40;82.00;;;;;;4970363;28;20056;-91
2024/03/23 07:58:31;;;;;;;1.17;1.08;;;9.50;81.80;;;;;;4996392;28;20038;-91
2024/03/23 08:01:14;;;;;;;3.10;2.90;;;9.70;79.90;;;;;;4966834;28;20045;-89
2024/03/23 08:03:44;;;;;;;1.67;1.58;;;9.70;79.40;;;;;;4987977;28;20116;-90
2024/03/23 08:06:13;;;;;;;7.15;1.70;;;9.70;80.30;;;;;;4950479;28;20379;-88
2024/03/23 08:08:39;;;;;;;3.28;2.10;;;9.50;77.60;;;;;;4968281;28;20058;-90
2024/03/23 08:11:06;;;;;;;5.32;2.95;;;9.50;77.30;;;;;;4971090;28;20152;-89
2024/03/23 08:13:32;;;;;;;4.57;2.95;;;9.30;75.00;;;;;;4982262;28;20022;-87
2024/03/23 08:15:58;;;;;;;4.05;2.78;;;9.30;74.70;;;;;;4976091;28;20068;-91
2024/03/23 08:18:24;;;;;;;6.10;2.35;;;9.30;73.70;;;;;;4969217;28;20088;-87
2024/03/23 08:21:01;;;;;;;13.60;3.28;;;9.30;69.70;;;;;;4987112;28;20509;-87
2024/03/23 08:23:28;;;;;;;7.00;2.65;;;9.50;69.80;;;;;;4950719;28;20037;-89
2024/03/23 08:26:00;;;;;;;6.80;2.92;;;9.60;67.60;;;;;;4970544;28;20684;-89
2024/03/23 08:28:27;;;;;;;6.90;2.83;;;9.80;66.90;;;;;;5003873;28;20033;-89
2024/03/23 08:30:54;;;;;;;17.67;3.67;;;9.80;63.50;;;;;;4983751;28;20029;-87
2024/03/23 08:33:20;;;;;;;5.88;1.67;;;9.90;63.20;;;;;;4972347;28;20034;-91
2024/03/23 08:36:03;;;;;;;4.45;2.47;;;10.10;64.30;;;;;;4978088;28;20105;-89
2024/03/23 08:38:29;;;;;;;5.55;2.85;;;10.30;63.10;;;;;;4975037;28;20117;-89
2024/03/23 08:41:05;;;;;;;8.32;3.00;;;10.40;64.50;;;;;;4972565;28;20117;-88
2024/03/23 08:43:33;;;;;;;5.30;2.20;;;10.60;65.10;;;;;;5003207;28;20037;-91
2024/03/23 08:46:12;;;;;;;9.13;3.35;;;10.70;63.10;;;;;;4976816;28;20033;-90
2024/03/23 08:48:39;;;;;;;8.13;2.03;;;10.80;62.70;;;;;;4976173;28;20038;-90
2024/03/23 08:51:07;;;;;;;5.57;2.38;;;10.90;60.60;;;;;;4962731;28;20087;-89
2024/03/23 08:53:33;;;;;;;4.68;2.78;;;10.80;54.90;;;;;;4982974;28;20864;-92
2024/03/23 08:56:00;;;;;;;4.78;3.47;;;10.80;56.00;;;;;;4987840;28;20064;-90
2024/03/23 08:58:27;;;;;;;5.63;1.92;;;11.00;54.00;;;;;;4987666;28;20224;-90
2024/03/23 09:00:56;;;;;;;14.95;3.05;;;10.80;48.50;;;;;;4986516;28;20022;-90
2024/03/23 09:03:22;;;;;;;10.30;3.95;;;11.00;48.00;;;;;;4964748;28;20069;-91
2024/03/23 09:05:49;;;;;;;7.85;2.78;;;11.10;51.10;;;;;;4990600;28;20026;-92
2024/03/23 09:08:14;;;;;;;6.45;2.10;;;10.90;47.50;;;;;;4997203;28;20030;-92
2024/03/23 09:10:51;;;;;;;7.07;2.53;;;10.80;48.70;;;;;;4997259;28;20021;-91
2024/03/23 09:13:17;;;;;;;7.10;2.40;;;10.90;49.40;;;;;;4995157;28;20026;-91
2024/03/23 09:15:51;;;;;;;7.75;2.95;;;10.90;51.10;;;;;;4974342;28;20040;-91
2024/03/23 09:18:19;;;;;;;5.70;4.10;;;11.00;52.10;;;;;;4979765;28;20034;-90
2024/03/23 09:20:54;;;;;;;5.20;2.08;;;10.80;50.90;;;;;;4966724;28;20190;-91
2024/03/23 09:23:25;;;;;;;9.73;4.32;;;10.70;51.80;;;;;;4974764;28;20033;-91
2024/03/23 09:25:56;;;;;;;7.63;3.30;;;10.50;50.40;;;;;;4988806;28;20569;-90
2024/03/23 09:28:22;;;;;;;9.88;3.60;;;10.30;48.80;;;;;;4985023;28;20033;-91
2024/03/23 09:30:48;;;;;;;4.57;2.13;;;10.20;49.40;;;;;;4950069;28;20030;-91
2024/03/23 09:33:14;;;;;;;6.28;3.08;;;10.00;49.70;;;;;;4950141;28;20037;-90
2024/03/23 09:35:41;;;;;;;14.95;3.33;;;9.90;50.20;;;;;;4957416;28;20037;-92
2024/03/23 09:38:07;;;;;;;11.13;3.30;;;10.00;51.50;;;;;;4951270;28;20091;-90
2024/03/23 09:40:33;;;;;;;8.10;4.18;;;10.20;50.60;;;;;;5002038;28;20037;-92
2024/03/23 09:43:12;;;;;;;;;;;;;;;;;;;;;
2024/03/23 09:45:49;;;;;;;4.75;3.80;;;10.30;51.50;;;;;;4969303;28;20030;-92
2024/03/23 09:48:21;;;;;;;8.75;3.65;;;10.20;52.00;;;;;;4951000;28;20042;-92
2024/03/23 09:50:54;;;;;;;9.68;3.08;;;10.20;53.30;;;;;;4967882;28;20172;-91
2024/03/23 09:53:32;;;;;;;6.95;3.42;;;9.70;67.50;;;;;;4969117;28;21576;-91
2024/03/23 09:56:01;;;;;;;8.65;4.00;;;9.30;73.90;;;;;;4949955;28;20408;-91
2024/03/23 09:59:07;;;;;;;8.85;4.07;;;8.90;79.40;;;;;;5003048;28;20732;-92
2024/03/23 10:02:17;;;;;;;;;;;;;;;;;;;;;
2024/03/23 10:04:54;;;;;;;9.43;5.13;;;8.40;84.90;;;;;;5001298;28;19919;-90
2024/03/23 10:07:44;;;;;;;14.32;5.10;;;8.30;87.70;;;;;;4981102;28;20585;-93
2024/03/23 10:10:21;;;;;;;10.23;4.35;;;8.30;88.90;;;;;;4972779;28;20038;-92
2024/03/23 10:12:53;;;;;;;7.65;4.47;;;8.30;87.60;;;;;;4954909;28;20030;-92
2024/03/23 10:15:28;;;;;;;9.73;5.30;;;8.30;83.50;;;;;;4955560;28;20523;-91
2024/03/23 10:17:56;;;;;;;10.02;4.28;;;8.40;86.10;;;;;;4980805;28;20124;-93
2024/03/23 10:20:23;;;;;;;9.32;4.13;;;8.60;89.30;;;;;;4973638;28;20029;-91
2024/03/23 10:23:28;;;;;;;;;;;;;;;;;;;;;
2024/03/23 10:26:25;;;;;;;7.88;4.85;;;8.70;84.40;;;;;;4984212;28;20032;-90
2024/03/23 10:28:52;;;;;;;7.88;4.90;;;8.50;87.10;;;;;;4928870;28;20037;-90
2024/03/23 10:31:28;;;;;;;10.73;5.18;;;8.70;89.10;;;;;;4992397;28;20030;-90
2024/03/23 10:33:54;;;;;;;10.32;5.90;;;8.50;86.90;;;;;;4974782;28;20468;-90
2024/03/23 10:37:03;;;;;;;6.93;3.17;;;8.60;90.80;;;;;;4987939;28;20090;-89
2024/03/23 10:43:03;;;;;;;6.07;2.92;;;9.10;80.60;;;;;;4967390;28;20048;-92
2024/03/23 10:45:28;;;;;;;5.68;2.78;;;9.70;78.80;;;;;;4983090;28;20053;-92
2024/03/23 10:47:57;;;;;;;4.22;2.45;;;9.80;74.30;;;;;;4963567;28;20061;-91
2024/03/23 10:50:23;;;;;;;6.03;3.30;;;10.30;72.70;;;;;;4971844;28;20076;-91
2024/03/23 10:52:55;;;;;;;6.18;3.63;;;10.50;72.80;;;;;;4986752;28;20735;-91
2024/03/23 10:55:23;;;;;;;5.22;3.03;;;10.00;74.00;;;;;;4981458;28;20531;-91
2024/03/23 10:58:05;;;;;;;9.40;3.33;;;10.00;76.60;;;;;;4983037;28;20032;-96
2024/03/23 11:03:44;;;;;;;5.88;2.22;;;10.70;67.80;;;;;;4965686;28;20034;-93
2024/03/23 11:06:30;;;;;;;6.93;2.78;;;11.10;67.30;;;;;;4974520;28;20093;-92
2024/03/23 11:08:56;;;;;;;9.75;4.28;;;11.00;61.70;;;;;;4955063;28;20048;-94
2024/03/23 11:11:25;;;;;;;4.80;2.08;;;11.10;64.50;;;;;;4976292;28;20060;-93
2024/03/23 11:17:10;;;;;;;4.90;2.15;;;11.20;65.10;;;;;;4960091;28;21744;-93
2024/03/23 11:19:37;;;;;;;6.90;4.03;;;11.70;63.00;;;;;;5004166;28;20481;-93
2024/03/23 11:22:05;;;;;;;7.03;2.15;;;12.00;63.10;;;;;;4969919;28;20026;-93
2024/03/23 11:24:30;;;;;;;5.85;1.77;;;11.80;62.70;;;;;;4954700;28;20037;-92
2024/03/23 11:27:00;;;;;;;4.57;2.45;;;11.90;62.90;;;;;;4979483;28;20037;-92
2024/03/23 11:29:26;;;;;;;6.10;2.78;;;11.80;64.60;;;;;;4979525;28;20022;-91
2024/03/23 11:31:58;;;;;;;3.33;2.20;;;12.10;59.00;;;;;;4985531;28;20045;-94
2024/03/23 11:34:24;;;;;;;4.50;2.60;;;12.40;58.00;;;;;;4999284;28;20048;-95
2024/03/23 11:37:06;;;;;;;9.98;2.78;;;12.40;61.90;;;;;;4976385;28;20030;-91
2024/03/23 11:39:31;;;;;;;5.95;3.08;;;12.40;62.10;;;;;;4971180;28;20037;-92
2024/03/23 11:41:57;;;;;;;6.88;3.05;;;11.40;62.90;;;;;;4971546;28;20037;-90
2024/03/23 11:44:25;;;;;;;7.35;2.58;;;10.90;66.60;;;;;;4965893;28;20037;-90
2024/03/23 11:47:09;;;;;;;5.53;2.10;;;10.80;68.30;;;;;;4987579;28;20138;-93
2024/03/23 11:49:40;;;;;;;10.75;3.20;;;10.60;68.50;;;;;;4985649;28;20030;-92
2024/03/23 11:52:07;;;;;;;7.00;2.78;;;10.50;68.50;;;;;;4970061;28;21363;-91
2024/03/23 11:54:32;;;;;;;11.23;3.10;;;10.40;66.60;;;;;;4974467;28;20089;-91
2024/03/23 11:56:59;;;;;;;4.55;3.00;;;10.40;68.00;;;;;;4991236;28;20034;-91
2024/03/23 11:59:42;;;;;;;5.20;3.28;;;10.10;68.70;;;;;;4980597;28;20029;-92
2024/03/23 12:02:14;;;;;;;6.13;2.17;;;10.50;69.80;;;;;;4982858;28;20934;-91
2024/03/23 12:04:40;;;;;;;4.88;2.70;;;11.00;68.00;;;;;;5017617;28;20126;-91
2024/03/23 12:07:15;;;;;;;7.18;3.10;;;11.70;66.00;;;;;;4981160;28;20145;-92
2024/03/23 12:09:41;;;;;;;7.35;2.17;;;12.20;59.60;;;;;;5009539;28;20428;-92
2024/03/23 12:12:17;;;;;;;6.85;2.40;;;12.00;56.50;;;;;;4966977;28;20036;-91
2024/03/23 12:14:44;;;;;;;6.35;2.40;;;12.20;52.30;;;;;;4973859;28;20046;-92
2024/03/23 12:17:14;;;;;;;6.75;2.47;;;12.50;45.90;;;;;;4973950;28;20041;-91
2024/03/23 12:19:46;;;;;;;11.30;2.30;;;12.50;42.40;;;;;;5010808;28;20030;-92
2024/03/23 12:22:21;;;;;;;5.65;2.17;;;12.70;44.90;;;;;;4957817;28;20053;-92
2024/03/23 12:24:47;;;;;;;6.20;2.15;;;12.60;44.10;;;;;;4984391;28;20030;-92
2024/03/23 12:27:13;;;;;;;5.85;2.33;;;12.10;45.30;;;;;;4984484;28;20014;-91
2024/03/23 12:29:39;;;;;;;6.07;2.55;;;12.30;42.80;;;;;;4954927;28;20030;-91
2024/03/23 12:32:05;;;;;;;6.88;1.70;;;12.40;39.80;;;;;;4973186;28;21548;-91
2024/03/23 12:34:31;;;;;;;5.60;2.38;;;12.40;39.90;;;;;;5009613;28;20048;-91
2024/03/23 12:37:02;;;;;;;7.47;2.45;;;12.60;49.90;;;;;;4976796;28;20093;-92
2024/03/23 12:39:27;;;;;;;8.10;2.58;;;12.30;56.70;;;;;;4957019;28;20128;-92
2024/03/23 12:41:53;;;;;;;5.68;1.00;;;11.90;55.40;;;;;;4973345;28;21092;-93
2024/03/23 12:44:19;;;;;;;4.35;1.33;;;11.70;39.50;;;;;;4976417;28;20033;-94
2024/03/23 12:47:03;;;;;;;3.70;1.50;;;11.50;39.40;;;;;;4996892;28;20042;-92
2024/03/23 12:49:32;;;;;;;6.55;1.38;;;10.70;50.30;;;;;;5007646;28;20029;-93
2024/03/23 12:52:04;;;;;;;2.92;1.42;;;10.00;55.20;;;;;;4971697;28;20053;-92
2024/03/23 12:54:31;;;;;;;3.03;1.88;;;9.50;61.00;;;;;;4975355;28;20022;-92
2024/03/23 12:57:06;;;;;;;2.10;0.77;;;9.00;72.20;;;;;;4975151;28;20030;-92
2024/03/23 12:59:32;;;;;;;2.78;0.68;;;8.50;74.40;;;;;;4970351;28;20391;-91
2024/03/23 13:01:57;;;;;;;1.98;1.08;;;8.30;76.10;;;;;;4988730;28;20091;-91
2024/03/23 13:04:23;;;;;;;3.30;1.27;;;8.30;74.00;;;;;;4988935;28;20133;-92